Time;durP1;ratioP1;P1;durP2;ratioP2;P2;SDS_P1;SDS_P2;PMS_P1;PMS_P2;Temp;Humidity;BMP_temperature;BMP_pressure;BME280_temperature;BME280_humidity;BME280_pressure;Samples;Min_cycle;Max_cycle;Signal;HPM_P1;HPM_P2
2021/01/23 00:00:20;;;;;;;;;2.50;0.00;;;;;;;;5098154;28;11462;-68
2021/01/23 00:02:46;;;;;;;;;0.00;0.00;;;;;;;;5096053;28;11632;-68
2021/01/23 00:05:12;;;;;;;;;2.00;0.00;;;;;;;;5099315;28;11604;-68
2021/01/23 00:07:38;;;;;;;;;0.00;0.00;;;;;;;;5095577;28;8823;-68
2021/01/23 00:10:04;;;;;;;;;0.00;0.00;;;;;;;;5098712;28;11500;-70
2021/01/23 00:12:30;;;;;;;;;0.00;0.00;;;;;;;;5096864;28;8908;-68
2021/01/23 00:14:57;;;;;;;;;0.00;0.00;;;;;;;;5097379;28;12233;-69
2021/01/23 00:17:23;;;;;;;;;0.25;0.00;;;;;;;;5097528;28;8936;-70
2021/01/23 00:19:49;;;;;;;;;2.00;0.00;;;;;;;;5096194;28;11519;-69
2021/01/23 00:22:15;;;;;;;;;0.00;0.00;;;;;;;;5098814;28;8848;-69
2021/01/23 00:24:41;;;;;;;;;0.75;0.00;;;;;;;;5095417;28;8857;-69
2021/01/23 00:27:07;;;;;;;;;0.25;0.00;;;;;;;;5098875;28;8840;-67
2021/01/23 00:29:33;;;;;;;;;1.25;0.00;;;;;;;;5096307;28;8932;-69
2021/01/23 00:31:59;;;;;;;;;1.00;1.00;;;;;;;;5097412;28;8843;-69
2021/01/23 00:34:25;;;;;;;;;1.00;0.00;;;;;;;;5098058;28;8820;-69
2021/01/23 00:36:51;;;;;;;;;2.00;0.00;;;;;;;;5096088;28;11489;-69
2021/01/23 00:39:17;;;;;;;;;1.50;0.75;;;;;;;;5098469;28;8823;-69
2021/01/23 00:41:43;;;;;;;;;0.00;0.00;;;;;;;;5095389;28;8878;-69
2021/01/23 00:44:09;;;;;;;;;2.00;0.00;;;;;;;;5091437;28;8835;-69
2021/01/23 00:46:35;;;;;;;;;1.00;0.00;;;;;;;;5098230;28;8924;-69
2021/01/23 00:49:02;;;;;;;;;1.50;0.00;;;;;;;;5096408;28;9667;-69
2021/01/23 00:51:27;;;;;;;;;0.00;0.00;;;;;;;;5097330;28;8957;-69
2021/01/23 00:53:53;;;;;;;;;0.00;0.00;;;;;;;;5097200;28;11556;-69
2021/01/23 00:56:19;;;;;;;;;0.00;0.00;;;;;;;;5095812;28;9719;-69
2021/01/23 00:58:45;;;;;;;;;0.00;0.00;;;;;;;;5097916;28;8848;-70
2021/01/23 01:01:13;;;;;;;;;0.75;0.00;;;;;;;;5095026;28;8835;-69
2021/01/23 01:03:39;;;;;;;;;0.00;0.00;;;;;;;;5090755;28;8882;-68
2021/01/23 01:06:06;;;;;;;;;1.50;0.00;;;;;;;;5097577;28;11484;-69
2021/01/23 01:08:32;;;;;;;;;0.00;0.00;;;;;;;;5086189;28;8963;-69
2021/01/23 01:10:58;;;;;;;;;3.50;0.00;;;;;;;;5083161;28;11493;-69
2021/01/23 01:13:24;;;;;;;;;0.00;0.00;;;;;;;;5083709;28;8844;-69
2021/01/23 01:15:50;;;;;;;;;0.50;0.00;;;;;;;;5081659;28;8835;-68
2021/01/23 01:18:16;;;;;;;;;0.50;0.00;;;;;;;;5084450;28;8836;-70
2021/01/23 01:20:42;;;;;;;;;0.75;0.50;;;;;;;;5080576;28;11617;-68
2021/01/23 01:23:09;;;;;;;;;0.00;0.00;;;;;;;;5084100;28;12301;-67
2021/01/23 01:25:35;;;;;;;;;0.50;0.00;;;;;;;;5081555;28;8836;-68
2021/01/23 01:28:01;;;;;;;;;0.00;0.00;;;;;;;;5082868;28;11590;-68
2021/01/23 01:30:27;;;;;;;;;2.00;0.00;;;;;;;;5082936;28;8820;-68
2021/01/23 01:32:53;;;;;;;;;1.50;0.00;;;;;;;;5081756;28;8847;-69
2021/01/23 01:35:19;;;;;;;;;1.25;0.00;;;;;;;;5083801;28;8858;-68
2021/01/23 01:37:45;;;;;;;;;0.00;0.00;;;;;;;;5080894;28;8811;-69
2021/01/23 01:40:13;;;;;;;;;0.00;0.00;;;;;;;;5076477;28;11513;-69
2021/01/23 01:42:39;;;;;;;;;0.25;0.00;;;;;;;;5083684;28;8947;-68
2021/01/23 01:45:05;;;;;;;;;0.00;0.00;;;;;;;;5081355;28;11652;-67
2021/01/23 01:47:32;;;;;;;;;0.00;0.00;;;;;;;;5082435;28;12311;-68
2021/01/23 01:49:58;;;;;;;;;1.00;0.00;;;;;;;;5082007;28;11608;-68
2021/01/23 01:52:24;;;;;;;;;1.00;0.25;;;;;;;;5081657;28;11586;-67
2021/01/23 01:54:50;;;;;;;;;0.75;0.00;;;;;;;;5083449;28;11502;-68
2021/01/23 01:57:18;;;;;;;;;1.00;1.00;;;;;;;;5080183;28;8974;-68
2021/01/23 01:59:44;;;;;;;;;0.00;0.00;;;;;;;;5080157;28;11600;-68
2021/01/23 02:02:19;;;;;;;;;1.00;0.00;;;;;;;;5083336;28;12189;-69
2021/01/23 02:04:50;;;;;;;;;1.00;0.00;;;;;;;;5079947;28;8867;-67
2021/01/23 02:07:21;;;;;;;;;0.00;0.00;;;;;;;;5079910;28;11591;-68
2021/01/23 02:10:10;;;;;;;;;0.00;0.00;;;;;;;;5079785;28;11493;-72
2021/01/23 02:12:42;;;;;;;;;0.00;0.00;;;;;;;;5080593;28;11643;-71
2021/01/23 02:15:10;;;;;;;;;1.00;0.00;;;;;;;;5082846;28;11583;-69
2021/01/23 02:17:40;;;;;;;;;0.75;0.00;;;;;;;;5080309;28;11584;-70
2021/01/23 02:20:13;;;;;;;;;0.00;0.00;;;;;;;;5081630;28;11595;-69
2021/01/23 02:22:57;;;;;;;;;1.50;0.00;;;;;;;;5080099;28;11612;-71
2021/01/23 02:25:24;;;;;;;;;0.00;0.00;;;;;;;;5080423;28;11466;-70
2021/01/23 02:27:55;;;;;;;;;0.00;0.00;;;;;;;;5082830;28;11571;-70
2021/01/23 02:30:24;;;;;;;;;0.00;0.00;;;;;;;;5080132;28;11620;-69
2021/01/23 02:32:53;;;;;;;;;1.00;0.00;;;;;;;;5082330;28;11577;-68
2021/01/23 02:35:20;;;;;;;;;0.75;0.75;;;;;;;;5079704;28;11493;-69
2021/01/23 02:37:47;;;;;;;;;0.50;0.50;;;;;;;;5082595;28;11471;-68
2021/01/23 02:40:13;;;;;;;;;2.00;2.00;;;;;;;;5075559;28;11579;-69
2021/01/23 02:42:39;;;;;;;;;1.00;0.50;;;;;;;;5082214;28;11647;-68
2021/01/23 02:45:06;;;;;;;;;2.00;0.00;;;;;;;;5080134;28;11587;-68
2021/01/23 02:47:32;;;;;;;;;0.00;0.00;;;;;;;;5081308;28;11583;-68
2021/01/23 02:49:59;;;;;;;;;0.00;0.00;;;;;;;;5080810;28;11531;-68
2021/01/23 02:52:27;;;;;;;;;0.25;0.00;;;;;;;;5080308;28;8827;-68
2021/01/23 02:54:55;;;;;;;;;0.50;0.50;;;;;;;;5081910;28;11604;-68
2021/01/23 02:57:22;;;;;;;;;1.25;1.25;;;;;;;;5079124;28;11612;-68
2021/01/23 02:59:52;;;;;;;;;3.00;1.00;;;;;;;;5082437;28;11642;-69
2021/01/23 03:02:19;;;;;;;;;1.50;0.25;;;;;;;;5080611;28;11706;-68
2021/01/23 03:04:45;;;;;;;;;0.25;0.25;;;;;;;;5080053;28;11460;-69
2021/01/23 03:07:15;;;;;;;;;0.75;0.75;;;;;;;;5083457;28;11670;-69
2021/01/23 03:09:41;;;;;;;;;1.25;0.75;;;;;;;;5080316;28;12348;-69
2021/01/23 03:12:07;;;;;;;;;0.00;0.00;;;;;;;;5081388;28;11641;-69
2021/01/23 03:14:34;;;;;;;;;2.00;0.00;;;;;;;;5080045;28;8840;-69
2021/01/23 03:17:00;;;;;;;;;0.00;0.00;;;;;;;;5080262;28;11488;-70
2021/01/23 03:19:27;;;;;;;;;0.00;0.00;;;;;;;;5080980;28;12314;-69
2021/01/23 03:21:53;;;;;;;;;6.50;0.75;;;;;;;;5079021;28;11577;-69
2021/01/23 03:24:20;;;;;;;;;0.00;0.00;;;;;;;;5082131;28;11493;-68
2021/01/23 03:26:46;;;;;;;;;0.00;0.00;;;;;;;;5078503;28;8843;-68
2021/01/23 03:29:12;;;;;;;;;0.00;0.00;;;;;;;;5081808;28;11597;-69
2021/01/23 03:31:38;;;;;;;;;0.33;0.00;;;;;;;;5078959;28;11628;-69
2021/01/23 03:34:05;;;;;;;;;2.00;0.00;;;;;;;;5080535;28;11508;-69
2021/01/23 03:36:31;;;;;;;;;0.00;0.00;;;;;;;;5080498;28;9649;-68
2021/01/23 03:38:57;;;;;;;;;1.67;0.00;;;;;;;;5079332;28;11637;-68
2021/01/23 03:41:24;;;;;;;;;0.00;0.00;;;;;;;;5081495;28;11622;-68
2021/01/23 03:43:50;;;;;;;;;1.00;0.00;;;;;;;;5078373;28;11496;-68
2021/01/23 03:46:16;;;;;;;;;1.33;0.00;;;;;;;;5081799;28;11472;-68
2021/01/23 03:48:42;;;;;;;;;3.00;1.33;;;;;;;;5078701;28;9629;-68
2021/01/23 03:51:07;;;;;;;;;0.00;0.00;;;;;;;;5081007;28;9571;-68
2021/01/23 03:53:33;;;;;;;;;1.33;0.00;;;;;;;;5079797;28;8858;-68
2021/01/23 03:55:59;;;;;;;;;1.33;0.00;;;;;;;;5078920;28;8855;-68
2021/01/23 03:58:26;;;;;;;;;1.00;1.00;;;;;;;;5081479;28;8828;-67
2021/01/23 04:00:52;;;;;;;;;1.67;1.00;;;;;;;;5078447;28;8937;-68
2021/01/23 04:03:18;;;;;;;;;3.00;0.67;;;;;;;;5081911;28;9544;-67
2021/01/23 04:05:44;;;;;;;;;0.00;0.00;;;;;;;;5077618;28;8867;-68
2021/01/23 04:08:10;;;;;;;;;0.00;0.00;;;;;;;;5080634;28;8851;-68
2021/01/23 04:10:36;;;;;;;;;0.00;0.00;;;;;;;;5079528;28;8833;-68
2021/01/23 04:13:02;;;;;;;;;0.67;0.33;;;;;;;;5079675;28;8874;-68
2021/01/23 04:15:29;;;;;;;;;1.00;0.33;;;;;;;;5080467;28;9509;-68
2021/01/23 04:17:55;;;;;;;;;1.00;0.00;;;;;;;;5078328;28;12304;-68
2021/01/23 04:20:21;;;;;;;;;0.00;0.00;;;;;;;;5081475;28;8829;-67
2021/01/23 04:22:46;;;;;;;;;0.00;0.00;;;;;;;;5077948;28;8855;-68
2021/01/23 04:25:13;;;;;;;;;0.00;0.00;;;;;;;;5081111;28;8951;-67
2021/01/23 04:27:39;;;;;;;;;1.00;0.00;;;;;;;;5079171;28;8882;-68
2021/01/23 04:30:06;;;;;;;;;0.67;0.67;;;;;;;;5079548;28;8839;-68
2021/01/23 04:32:34;;;;;;;;;0.00;0.00;;;;;;;;5079883;28;8824;-68
2021/01/23 04:35:00;;;;;;;;;1.67;0.00;;;;;;;;5078925;28;8983;-69
2021/01/23 04:37:26;;;;;;;;;1.33;0.00;;;;;;;;5080797;28;8836;-68
2021/01/23 04:39:52;;;;;;;;;0.00;0.00;;;;;;;;5077937;28;8846;-69
2021/01/23 04:42:19;;;;;;;;;0.00;0.00;;;;;;;;5077943;28;9081;-68
2021/01/23 04:44:45;;;;;;;;;0.00;0.00;;;;;;;;5084347;28;8868;-68
2021/01/23 04:47:11;;;;;;;;;0.67;0.67;;;;;;;;5082499;28;8832;-69
2021/01/23 04:49:38;;;;;;;;;2.33;0.00;;;;;;;;5083215;28;8936;-68
2021/01/23 04:52:05;;;;;;;;;0.00;0.00;;;;;;;;5083743;28;8816;-68
2021/01/23 04:54:31;;;;;;;;;3.00;0.00;;;;;;;;5082258;28;11604;-68
2021/01/23 04:56:57;;;;;;;;;5.00;0.00;;;;;;;;5083998;28;8828;-69
2021/01/23 04:59:24;;;;;;;;;0.33;0.33;;;;;;;;5081453;28;11508;-68
2021/01/23 05:02:05;;;;;;;;;0.67;0.00;;;;;;;;5081213;28;8962;-68
2021/01/23 05:04:41;;;;;;;;;2.00;0.67;;;;;;;;5081938;28;8981;-68
2021/01/23 05:07:08;;;;;;;;;7.00;0.00;;;;;;;;5082915;28;11575;-68
2021/01/23 05:09:34;;;;;;;;;2.00;0.00;;;;;;;;5082110;28;11642;-68
2021/01/23 05:12:00;;;;;;;;;1.00;1.00;;;;;;;;5083795;28;8840;-68
2021/01/23 05:14:26;;;;;;;;;2.00;1.00;;;;;;;;5081273;28;8957;-68
2021/01/23 05:16:52;;;;;;;;;0.00;0.00;;;;;;;;5084446;28;9521;-68
2021/01/23 05:19:19;;;;;;;;;1.33;0.33;;;;;;;;5081231;28;9710;-68
2021/01/23 05:21:59;;;;;;;;;2.67;1.00;;;;;;;;5083950;28;8856;-68
2021/01/23 05:24:26;;;;;;;;;2.00;1.00;;;;;;;;5080939;28;8840;-68
2021/01/23 05:26:55;;;;;;;;;1.00;1.00;;;;;;;;5086917;28;8841;-68
2021/01/23 05:29:21;;;;;;;;;1.33;0.00;;;;;;;;5083048;28;8967;-69
2021/01/23 05:31:47;;;;;;;;;0.00;0.00;;;;;;;;5085206;28;8827;-68
2021/01/23 05:34:26;;;;;;;;;1.00;0.00;;;;;;;;5082476;28;8893;-68
2021/01/23 05:36:53;;;;;;;;;0.00;0.00;;;;;;;;5082868;28;8858;-68
2021/01/23 05:39:19;;;;;;;;;2.33;0.00;;;;;;;;5084068;28;8840;-68
2021/01/23 05:41:59;;;;;;;;;0.00;0.00;;;;;;;;5081285;28;9810;-68
2021/01/23 05:44:26;;;;;;;;;2.67;0.00;;;;;;;;5081622;28;8953;-67
2021/01/23 05:46:52;;;;;;;;;5.00;0.00;;;;;;;;5082960;28;8855;-68
2021/01/23 05:49:18;;;;;;;;;0.00;0.00;;;;;;;;5080332;28;8940;-68
2021/01/23 05:51:44;;;;;;;;;1.00;0.00;;;;;;;;5082346;28;9598;-68
2021/01/23 05:54:11;;;;;;;;;1.00;1.00;;;;;;;;5084497;28;9004;-68
2021/01/23 05:56:37;;;;;;;;;2.67;2.67;;;;;;;;5082098;28;8991;-68
2021/01/23 05:59:04;;;;;;;;;2.67;1.67;;;;;;;;5082990;28;8840;-68
2021/01/23 06:01:32;;;;;;;;;1.00;0.00;;;;;;;;5082833;28;8885;-68
2021/01/23 06:03:58;;;;;;;;;0.67;0.00;;;;;;;;5085458;28;8832;-68
2021/01/23 06:06:24;;;;;;;;;3.00;1.00;;;;;;;;5080371;28;8827;-68
2021/01/23 06:08:51;;;;;;;;;1.33;1.33;;;;;;;;5083175;28;8836;-68
2021/01/23 06:11:37;;;;;;;;;2.00;1.00;;;;;;;;5080739;28;8981;-68
2021/01/23 06:14:03;;;;;;;;;2.00;1.00;;;;;;;;5085187;28;8955;-68
2021/01/23 06:16:44;;;;;;;;;0.33;0.00;;;;;;;;5087313;28;8839;-68
2021/01/23 06:19:25;;;;;;;;;3.67;2.00;;;;;;;;5086291;28;9674;-68
2021/01/23 06:21:52;;;;;;;;;0.67;0.00;;;;;;;;5087144;28;8840;-69
2021/01/23 06:24:18;;;;;;;;;1.33;0.33;;;;;;;;5091849;28;8840;-69
2021/01/23 06:26:56;;;;;;;;;5.00;1.67;;;;;;;;5087179;28;8882;-69
2021/01/23 06:29:30;;;;;;;;;2.00;0.67;;;;;;;;5082524;28;8871;-68
2021/01/23 06:31:57;;;;;;;;;2.00;0.00;;;;;;;;5081458;28;8957;-67
2021/01/23 06:34:24;;;;;;;;;3.00;1.00;;;;;;;;5084302;28;8824;-67
2021/01/23 06:37:11;;;;;;;;;3.00;1.00;;;;;;;;5082942;28;8831;-67
2021/01/23 06:39:52;;;;;;;;;0.00;0.00;;;;;;;;5083583;28;9693;-67
2021/01/23 06:42:18;;;;;;;;;0.00;0.00;;;;;;;;5082758;28;8976;-68
2021/01/23 06:44:44;;;;;;;;;0.00;0.00;;;;;;;;5080394;28;8890;-68
2021/01/23 06:47:10;;;;;;;;;1.00;0.00;;;;;;;;5081061;28;8858;-68
2021/01/23 06:49:40;;;;;;;;;5.33;1.67;;;;;;;;5085192;28;8854;-68
2021/01/23 06:52:06;;;;;;;;;1.33;1.00;;;;;;;;5080619;28;8969;-67
2021/01/23 06:54:32;;;;;;;;;7.00;0.00;;;;;;;;5082171;28;8894;-67
2021/01/23 06:56:59;;;;;;;;;1.67;1.67;;;;;;;;5082574;28;8855;-67
2021/01/23 06:59:25;;;;;;;;;1.67;0.00;;;;;;;;5080020;28;8992;-69
2021/01/23 07:01:58;;;;;;;;;1.00;1.00;;;;;;;;5084301;28;8863;-68
2021/01/23 07:04:25;;;;;;;;;0.00;0.00;;;;;;;;5077925;28;8865;-70
2021/01/23 07:06:52;;;;;;;;;3.00;1.33;;;;;;;;5079597;28;8966;-69
2021/01/23 07:09:18;;;;;;;;;1.00;0.00;;;;;;;;5084128;28;8980;-68
2021/01/23 07:11:44;;;;;;;;;2.33;0.00;;;;;;;;5080142;28;9036;-67
2021/01/23 07:14:10;;;;;;;;;4.33;2.33;;;;;;;;5079093;28;8856;-67
2021/01/23 07:16:39;;;;;;;;;2.33;0.00;;;;;;;;5088351;28;8850;-66
2021/01/23 07:19:07;;;;;;;;;0.33;0.00;;;;;;;;5079831;28;8836;-67
2021/01/23 07:21:35;;;;;;;;;0.33;0.00;;;;;;;;5077718;28;8912;-68
2021/01/23 07:24:01;;;;;;;;;3.00;0.00;;;;;;;;5088818;28;9026;-67
2021/01/23 07:26:28;;;;;;;;;2.67;2.00;;;;;;;;5081945;28;8879;-67
2021/01/23 07:28:55;;;;;;;;;0.67;0.67;;;;;;;;5076398;28;8862;-67
2021/01/23 07:31:24;;;;;;;;;1.67;1.00;;;;;;;;5086178;28;8863;-66
2021/01/23 07:33:50;;;;;;;;;0.67;0.00;;;;;;;;5082103;28;8853;-67
2021/01/23 07:36:32;;;;;;;;;5.00;1.00;;;;;;;;5080357;28;9013;-67
2021/01/23 07:39:00;;;;;;;;;3.00;0.00;;;;;;;;5077102;28;8913;-67
2021/01/23 07:41:28;;;;;;;;;3.67;0.67;;;;;;;;5081671;28;8953;-67
2021/01/23 07:43:54;;;;;;;;;3.00;1.00;;;;;;;;5080203;28;8840;-66
2021/01/23 07:46:20;;;;;;;;;2.33;1.00;;;;;;;;5085687;28;8835;-68
2021/01/23 07:48:46;;;;;;;;;0.00;0.00;;;;;;;;5078792;28;8965;-70
2021/01/23 07:51:22;;;;;;;;;3.00;1.00;;;;;;;;5078688;28;8828;-67
2021/01/23 07:54:02;;;;;;;;;5.67;0.00;;;;;;;;5082909;28;8843;-67
2021/01/23 07:56:29;;;;;;;;;3.00;3.00;;;;;;;;5076735;28;9005;-67
2021/01/23 07:58:55;;;;;;;;;4.33;1.67;;;;;;;;5084004;28;8867;-66
2021/01/23 08:01:21;;;;;;;;;1.67;1.00;;;;;;;;5085690;28;8847;-65
2021/01/23 08:03:46;;;;;;;;;1.00;0.33;;;;;;;;5080376;28;8864;-67
2021/01/23 08:06:19;;;;;;;;;2.00;1.33;;;;;;;;5081006;28;8951;-67
2021/01/23 08:08:45;;;;;;;;;2.00;1.00;;;;;;;;5082708;28;8968;-67
2021/01/23 08:11:32;;;;;;;;;0.67;0.67;;;;;;;;5080421;28;8850;-68
2021/01/23 08:14:07;;;;;;;;;1.00;1.00;;;;;;;;5081415;28;8820;-68
2021/01/23 08:16:33;;;;;;;;;7.00;1.33;;;;;;;;5084844;28;8856;-70
2021/01/23 08:19:05;;;;;;;;;1.00;0.00;;;;;;;;5079564;28;9622;-73
2021/01/23 08:21:31;;;;;;;;;2.67;0.67;;;;;;;;5082345;28;9613;-72
2021/01/23 08:23:57;;;;;;;;;2.00;1.00;;;;;;;;5085158;28;11607;-72
2021/01/23 08:26:36;;;;;;;;;2.33;2.00;;;;;;;;5085297;28;8824;-72
2021/01/23 08:29:03;;;;;;;;;0.67;0.67;;;;;;;;5084446;28;8953;-71
2021/01/23 08:31:28;;;;;;;;;6.00;1.00;;;;;;;;5084270;28;11626;-71
2021/01/23 08:33:55;;;;;;;;;1.00;0.67;;;;;;;;5086026;28;11600;-72
2021/01/23 08:36:22;;;;;;;;;1.67;1.00;;;;;;;;5080917;28;8854;-72
2021/01/23 08:38:54;;;;;;;;;0.67;0.67;;;;;;;;5089610;28;8841;-72
2021/01/23 08:41:20;;;;;;;;;3.00;1.00;;;;;;;;5084631;28;11495;-73
2021/01/23 08:43:47;;;;;;;;;7.67;2.00;;;;;;;;5081596;28;8970;-72
2021/01/23 08:46:13;;;;;;;;;1.33;1.00;;;;;;;;5081557;28;8838;-66
2021/01/23 08:48:39;;;;;;;;;0.33;0.00;;;;;;;;5082629;28;11496;-68
2021/01/23 08:51:05;;;;;;;;;2.00;0.00;;;;;;;;5083837;28;8877;-71
2021/01/23 08:53:31;;;;;;;;;1.00;0.00;;;;;;;;5081348;28;9680;-72
2021/01/23 08:55:56;;;;;;;;;8.67;0.00;;;;;;;;5082956;28;11610;-69
2021/01/23 08:58:22;;;;;;;;;2.67;1.00;;;;;;;;5090744;28;9089;-71
2021/01/23 09:00:49;;;;;;;;;1.33;0.00;;;;;;;;5080064;28;8852;-71
2021/01/23 09:03:15;;;;;;;;;5.33;1.33;;;;;;;;5086403;28;8988;-66
2021/01/23 09:05:41;;;;;;;;;2.33;1.67;;;;;;;;5085676;28;11506;-66
2021/01/23 09:08:07;;;;;;;;;1.00;1.00;;;;;;;;5080839;28;8839;-71
2021/01/23 09:10:33;;;;;;;;;1.00;1.00;;;;;;;;5086671;28;8828;-65
2021/01/23 09:12:59;;;;;;;;;2.67;1.00;;;;;;;;5083384;28;8844;-66
2021/01/23 09:15:25;;;;;;;;;1.67;1.67;;;;;;;;5084100;28;9526;-68
2021/01/23 09:17:51;;;;;;;;;1.33;0.67;;;;;;;;5082044;28;9582;-69
2021/01/23 09:20:17;;;;;;;;;3.00;0.25;;;;;;;;5085280;28;8963;-68
2021/01/23 09:22:43;;;;;;;;;2.00;1.00;;;;;;;;5085537;28;11491;-68
2021/01/23 09:25:10;;;;;;;;;5.67;0.00;;;;;;;;5079341;28;8969;-68
2021/01/23 09:27:36;;;;;;;;;3.67;1.00;;;;;;;;5080991;28;8850;-67
2021/01/23 09:30:03;;;;;;;;;2.33;1.33;;;;;;;;5081778;28;11735;-68
2021/01/23 09:32:29;;;;;;;;;1.33;1.33;;;;;;;;5081105;28;8873;-67
2021/01/23 09:34:56;;;;;;;;;2.00;2.00;;;;;;;;5082156;28;11487;-69
2021/01/23 09:37:23;;;;;;;;;0.75;0.00;;;;;;;;5081834;28;11486;-68
2021/01/23 09:39:49;;;;;;;;;1.00;1.00;;;;;;;;5082076;28;11535;-68
2021/01/23 09:42:15;;;;;;;;;0.33;0.00;;;;;;;;5084050;28;12215;-69
2021/01/23 09:44:41;;;;;;;;;0.00;0.00;;;;;;;;5080788;28;8840;-69
2021/01/23 09:47:07;;;;;;;;;1.67;1.00;;;;;;;;5078696;28;8911;-75
2021/01/23 09:49:33;;;;;;;;;1.33;0.67;;;;;;;;5084467;28;8975;-69
2021/01/23 09:52:00;;;;;;;;;4.00;0.00;;;;;;;;5079858;28;8970;-71
2021/01/23 09:54:25;;;;;;;;;2.00;2.00;;;;;;;;5081352;28;9078;-74
2021/01/23 09:56:51;;;;;;;;;0.25;0.25;;;;;;;;5079435;28;11496;-69
2021/01/23 09:59:17;;;;;;;;;2.00;1.00;;;;;;;;5085279;28;8949;-72
2021/01/23 10:01:43;;;;;;;;;0.75;0.75;;;;;;;;5082416;28;8839;-70
2021/01/23 10:04:09;;;;;;;;;1.00;1.00;;;;;;;;5082491;28;8871;-69
2021/01/23 10:06:35;;;;;;;;;1.00;1.00;;;;;;;;5080609;28;8870;-70
2021/01/23 10:09:02;;;;;;;;;3.00;1.00;;;;;;;;5083640;28;11501;-68
2021/01/23 10:11:28;;;;;;;;;1.33;1.00;;;;;;;;5079896;28;8969;-69
2021/01/23 10:13:54;;;;;;;;;1.33;1.33;;;;;;;;5083198;28;11474;-74
2021/01/23 10:16:20;;;;;;;;;1.00;1.00;;;;;;;;5080373;28;8878;-69
2021/01/23 10:18:46;;;;;;;;;1.67;1.00;;;;;;;;5084048;28;8851;-68
2021/01/23 10:21:12;;;;;;;;;2.33;2.00;;;;;;;;5081423;28;8855;-70
2021/01/23 10:23:37;;;;;;;;;3.00;1.00;;;;;;;;5082886;28;8872;-69
2021/01/23 10:26:04;;;;;;;;;2.00;0.00;;;;;;;;5078651;28;8860;-69
2021/01/23 10:28:30;;;;;;;;;2.33;1.67;;;;;;;;5079721;28;8825;-71
2021/01/23 10:31:21;;;;;;;;;5.00;4.00;;;;;;;;5107257;27;13410;-71
2021/01/23 10:33:47;;;;;;;;;3.00;2.00;;;;;;;;5093462;28;11502;-70
2021/01/23 10:36:13;;;;;;;;;1.00;1.00;;;;;;;;5026893;28;11598;-70
2021/01/23 10:38:39;;;;;;;;;2.75;1.25;;;;;;;;5054080;28;9568;-71
2021/01/23 10:41:05;;;;;;;;;6.33;6.00;;;;;;;;5046320;28;8898;-68
2021/01/23 10:43:32;;;;;;;;;6.00;6.00;;;;;;;;5049633;28;8822;-73
2021/01/23 10:45:58;;;;;;;;;3.00;2.00;;;;;;;;5047023;28;8841;-70
2021/01/23 10:48:25;;;;;;;;;1.00;0.00;;;;;;;;5052738;28;11521;-72
2021/01/23 10:50:51;;;;;;;;;6.25;0.25;;;;;;;;5053415;28;8955;-70
2021/01/23 10:53:17;;;;;;;;;1.50;0.00;;;;;;;;5054658;28;11544;-78
2021/01/23 10:55:43;;;;;;;;;0.00;0.00;;;;;;;;5053367;28;8871;-74
2021/01/23 10:58:09;;;;;;;;;1.00;0.00;;;;;;;;5051531;28;11505;-69
2021/01/23 11:00:34;;;;;;;;;1.00;1.00;;;;;;;;5045613;28;8878;-69
2021/01/23 11:03:00;;;;;;;;;0.00;0.00;;;;;;;;5046917;28;8980;-69
2021/01/23 11:05:27;;;;;;;;;1.25;1.00;;;;;;;;5047838;28;9009;-68
2021/01/23 11:07:53;;;;;;;;;2.50;1.00;;;;;;;;5048427;28;8860;-69
2021/01/23 11:10:19;;;;;;;;;0.00;0.00;;;;;;;;5048042;28;12392;-69
2021/01/23 11:12:45;;;;;;;;;0.00;0.00;;;;;;;;5047924;28;8868;-71
2021/01/23 11:15:11;;;;;;;;;1.00;1.00;;;;;;;;5043945;28;8844;-69
2021/01/23 11:17:38;;;;;;;;;6.50;2.00;;;;;;;;5046968;28;9002;-68
2021/01/23 11:20:05;;;;;;;;;1.00;1.00;;;;;;;;4941474;28;11476;-69
2021/01/23 11:22:32;;;;;;;;;3.25;1.00;;;;;;;;5049558;28;11641;-69
2021/01/23 11:24:58;;;;;;;;;1.00;1.00;;;;;;;;5048071;28;11654;-70
2021/01/23 11:27:24;;;;;;;;;1.00;1.00;;;;;;;;5039352;28;12350;-68
2021/01/23 11:29:50;;;;;;;;;0.75;0.50;;;;;;;;5047396;28;8876;-68
2021/01/23 11:32:16;;;;;;;;;3.00;1.00;;;;;;;;5047606;28;8890;-67
2021/01/23 11:34:42;;;;;;;;;1.00;0.00;;;;;;;;5046032;28;8883;-70
2021/01/23 11:37:08;;;;;;;;;2.25;1.25;;;;;;;;5047390;28;9021;-69
2021/01/23 11:39:36;;;;;;;;;0.00;0.00;;;;;;;;5049891;28;11509;-68
2021/01/23 11:42:02;;;;;;;;;1.50;0.00;;;;;;;;5038039;28;11536;-70
2021/01/23 11:44:28;;;;;;;;;3.00;2.00;;;;;;;;5035405;28;11776;-69
2021/01/23 11:46:54;;;;;;;;;5.33;5.33;;;;;;;;5030735;28;11552;-72
2021/01/23 11:49:20;;;;;;;;;4.00;2.25;;;;;;;;5033973;28;8863;-69
2021/01/23 11:51:46;;;;;;;;;2.25;2.00;;;;;;;;5033519;28;8914;-67
2021/01/23 11:54:12;;;;;;;;;4.00;4.00;;;;;;;;5034775;28;8883;-69
2021/01/23 11:56:39;;;;;;;;;2.00;2.00;;;;;;;;5035902;28;8881;-69
2021/01/23 11:59:04;;;;;;;;;3.00;3.00;;;;;;;;5034007;28;8841;-69
2021/01/23 12:01:30;;;;;;;;;1.00;1.00;;;;;;;;5034095;28;11498;-71
2021/01/23 12:03:58;;;;;;;;;2.25;2.00;;;;;;;;5035860;28;8853;-72
2021/01/23 12:06:24;;;;;;;;;2.00;1.75;;;;;;;;5035200;28;8828;-70
2021/01/23 12:08:50;;;;;;;;;1.50;1.50;;;;;;;;5035471;28;11518;-71
2021/01/23 12:11:16;;;;;;;;;1.00;1.00;;;;;;;;5040805;28;8959;-75
2021/01/23 12:13:42;;;;;;;;;1.00;1.00;;;;;;;;5038089;28;8827;-72
2021/01/23 12:16:09;;;;;;;;;0.00;0.00;;;;;;;;5035733;28;8878;-71
2021/01/23 12:18:35;;;;;;;;;1.75;0.00;;;;;;;;5039574;28;11591;-71
2021/01/23 12:21:01;;;;;;;;;1.00;1.00;;;;;;;;5039596;28;11497;-71
2021/01/23 12:23:27;;;;;;;;;1.25;0.00;;;;;;;;5041743;28;8845;-74
2021/01/23 12:25:53;;;;;;;;;0.00;0.00;;;;;;;;5038832;28;9011;-74
2021/01/23 12:28:19;;;;;;;;;1.25;1.00;;;;;;;;5040804;28;8966;-75
2021/01/23 12:30:45;;;;;;;;;1.50;0.25;;;;;;;;5039811;28;8869;-74
2021/01/23 12:33:11;;;;;;;;;2.50;0.00;;;;;;;;5039496;28;9010;-74
2021/01/23 12:35:37;;;;;;;;;0.00;0.00;;;;;;;;5041509;28;11496;-77
2021/01/23 12:38:03;;;;;;;;;0.75;0.75;;;;;;;;5038743;28;8844;-75
2021/01/23 12:40:29;;;;;;;;;0.00;0.00;;;;;;;;5042144;28;8834;-74
2021/01/23 12:42:55;;;;;;;;;2.00;1.00;;;;;;;;5038513;28;9780;-74
2021/01/23 12:45:21;;;;;;;;;0.00;0.00;;;;;;;;5040771;28;11622;-73
2021/01/23 12:47:48;;;;;;;;;0.00;0.00;;;;;;;;5039696;28;8830;-74
2021/01/23 12:50:14;;;;;;;;;0.00;0.00;;;;;;;;5039764;28;8917;-75
2021/01/23 12:52:40;;;;;;;;;1.00;0.50;;;;;;;;5039380;28;11616;-76
2021/01/23 12:55:07;;;;;;;;;1.00;0.00;;;;;;;;5039006;28;8975;-75
2021/01/23 12:57:35;;;;;;;;;1.00;1.00;;;;;;;;5041461;28;8824;-75
2021/01/23 13:00:01;;;;;;;;;0.00;0.00;;;;;;;;5039973;28;11642;-76
2021/01/23 13:02:27;;;;;;;;;0.75;0.75;;;;;;;;5040096;28;11575;-76
2021/01/23 13:04:54;;;;;;;;;0.25;0.25;;;;;;;;5037598;28;8875;-76
2021/01/23 13:07:20;;;;;;;;;3.00;0.00;;;;;;;;5033521;28;8861;-73
2021/01/23 13:09:48;;;;;;;;;1.00;0.00;;;;;;;;5038894;28;11531;-73
2021/01/23 13:12:14;;;;;;;;;0.75;0.75;;;;;;;;5039307;28;8845;-74
2021/01/23 13:14:40;;;;;;;;;1.00;1.00;;;;;;;;5031196;28;11519;-73
2021/01/23 13:17:06;;;;;;;;;1.75;0.00;;;;;;;;5036468;28;9590;-73
2021/01/23 13:19:32;;;;;;;;;1.00;1.00;;;;;;;;5037838;28;8999;-72
2021/01/23 13:21:58;;;;;;;;;1.00;1.00;;;;;;;;5038264;28;8900;-69
2021/01/23 13:24:24;;;;;;;;;2.25;1.50;;;;;;;;5037631;28;8971;-68
2021/01/23 13:26:51;;;;;;;;;1.25;0.50;;;;;;;;5038214;28;11520;-71
2021/01/23 13:29:16;;;;;;;;;2.00;0.75;;;;;;;;5037512;28;8872;-69
2021/01/23 13:31:42;;;;;;;;;0.25;0.25;;;;;;;;5037941;28;11525;-70
2021/01/23 13:34:08;;;;;;;;;1.00;0.00;;;;;;;;5038691;28;8877;-73
2021/01/23 13:36:34;;;;;;;;;0.00;0.00;;;;;;;;5038512;28;9680;-71
2021/01/23 13:39:03;;;;;;;;;0.00;0.00;;;;;;;;5042091;28;11521;-72
2021/01/23 13:41:28;;;;;;;;;0.75;0.75;;;;;;;;5038871;28;8840;-71
2021/01/23 13:43:54;;;;;;;;;3.50;0.00;;;;;;;;5041531;28;11540;-69
2021/01/23 13:46:20;;;;;;;;;1.00;1.00;;;;;;;;5039510;28;8845;-71
2021/01/23 13:48:46;;;;;;;;;1.00;1.00;;;;;;;;5038111;28;11647;-70
2021/01/23 13:51:12;;;;;;;;;1.25;0.50;;;;;;;;5039498;28;8871;-66
2021/01/23 13:53:38;;;;;;;;;2.00;2.00;;;;;;;;5041309;28;9018;-68
2021/01/23 13:56:05;;;;;;;;;2.00;1.00;;;;;;;;5038541;28;12279;-67
2021/01/23 13:58:31;;;;;;;;;2.50;2.00;;;;;;;;5041235;28;11623;-67
2021/01/23 14:00:57;;;;;;;;;3.75;1.75;;;;;;;;5038372;28;12247;-69
2021/01/23 14:03:23;;;;;;;;;1.25;1.00;;;;;;;;5040634;28;11658;-69
2021/01/23 14:05:49;;;;;;;;;0.00;0.00;;;;;;;;5039041;28;11578;-70
2021/01/23 14:08:15;;;;;;;;;1.00;1.00;;;;;;;;5038985;28;8852;-72
2021/01/23 14:10:41;;;;;;;;;1.25;1.25;;;;;;;;5039470;28;8832;-71
2021/01/23 14:13:08;;;;;;;;;2.00;2.00;;;;;;;;5040411;28;8936;-73
2021/01/23 14:15:34;;;;;;;;;1.75;1.75;;;;;;;;5037028;28;9714;-71
2021/01/23 14:18:00;;;;;;;;;2.00;2.00;;;;;;;;5037028;28;11536;-72
2021/01/23 14:20:25;;;;;;;;;2.75;2.25;;;;;;;;5033102;28;8853;-73
2021/01/23 14:22:51;;;;;;;;;3.00;3.00;;;;;;;;5029889;28;8880;-72
2021/01/23 14:25:17;;;;;;;;;2.00;2.00;;;;;;;;5033616;28;8872;-72
2021/01/23 14:27:44;;;;;;;;;4.75;3.00;;;;;;;;5033607;28;8963;-72
2021/01/23 14:30:11;;;;;;;;;1.25;1.00;;;;;;;;5031539;28;8871;-72
2021/01/23 14:32:38;;;;;;;;;2.25;2.00;;;;;;;;5032190;28;11553;-72
2021/01/23 14:35:04;;;;;;;;;4.00;3.00;;;;;;;;5031720;28;11673;-72
2021/01/23 14:37:30;;;;;;;;;4.00;2.50;;;;;;;;5039825;28;11637;-74
2021/01/23 14:39:56;;;;;;;;;2.00;2.00;;;;;;;;5035442;28;11588;-73
2021/01/23 14:42:22;;;;;;;;;2.00;2.00;;;;;;;;5038629;28;8862;-72
2021/01/23 14:44:48;;;;;;;;;2.50;2.00;;;;;;;;5039925;28;8971;-72
2021/01/23 14:47:15;;;;;;;;;3.25;2.00;;;;;;;;5038602;28;8850;-73
2021/01/23 14:49:41;;;;;;;;;2.25;1.50;;;;;;;;5038690;28;8979;-73
2021/01/23 14:52:07;;;;;;;;;3.00;3.00;;;;;;;;5039292;28;11649;-73